sensor_id;sensor_type;location;lat;lon;timestamp;P1;durP1;ratioP1;P2;durP2;ratioP2
7267;SDS011;3675;43.276;27.962;2022-07-12T00:02:20;0.60;;;0.60;;
7267;SDS011;3675;43.276;27.962;2022-07-12T00:04:46;0.55;;;0.55;;
7267;SDS011;3675;43.276;27.962;2022-07-12T00:07:11;1.08;;;1.08;;
7267;SDS011;3675;43.276;27.962;2022-07-12T00:09:36;1.95;;;0.82;;
7267;SDS011;3675;43.276;27.962;2022-07-12T00:12:02;0.70;;;0.70;;
7267;SDS011;3675;43.276;27.962;2022-07-12T00:14:27;0.50;;;0.50;;
7267;SDS011;3675;43.276;27.962;2022-07-12T00:16:53;0.65;;;0.65;;
7267;SDS011;3675;43.276;27.962;2022-07-12T00:19:18;3.00;;;0.80;;
7267;SDS011;3675;43.276;27.962;2022-07-12T00:21:43;0.68;;;0.68;;
7267;SDS011;3675;43.276;27.962;2022-07-12T00:24:09;0.73;;;0.73;;
7267;SDS011;3675;43.276;27.962;2022-07-12T00:26:34;0.70;;;0.70;;
7267;SDS011;3675;43.276;27.962;2022-07-12T00:29:00;1.00;;;0.70;;
7267;SDS011;3675;43.276;27.962;2022-07-12T00:31:25;0.77;;;0.77;;
7267;SDS011;3675;43.276;27.962;2022-07-12T00:33:50;1.40;;;0.80;;
7267;SDS011;3675;43.276;27.962;2022-07-12T00:36:15;0.52;;;0.52;;
7267;SDS011;3675;43.276;27.962;2022-07-12T00:38:41;0.70;;;0.70;;
7267;SDS011;3675;43.276;27.962;2022-07-12T00:41:07;0.93;;;0.93;;
7267;SDS011;3675;43.276;27.962;2022-07-12T00:43:32;0.82;;;0.68;;
7267;SDS011;3675;43.276;27.962;2022-07-12T00:45:57;0.85;;;0.85;;
7267;SDS011;3675;43.276;27.962;2022-07-12T00:48:23;0.60;;;0.60;;
7267;SDS011;3675;43.276;27.962;2022-07-12T00:50:49;0.93;;;0.90;;
7267;SDS011;3675;43.276;27.962;2022-07-12T00:53:14;0.80;;;0.80;;
7267;SDS011;3675;43.276;27.962;2022-07-12T00:55:41;0.60;;;0.60;;
7267;SDS011;3675;43.276;27.962;2022-07-12T00:58:07;0.80;;;0.75;;
7267;SDS011;3675;43.276;27.962;2022-07-12T01:00:32;0.95;;;0.70;;
7267;SDS011;3675;43.276;27.962;2022-07-12T01:02:58;1.98;;;1.05;;
7267;SDS011;3675;43.276;27.962;2022-07-12T01:05:26;0.90;;;0.90;;
7267;SDS011;3675;43.276;27.962;2022-07-12T01:07:51;1.15;;;1.13;;
7267;SDS011;3675;43.276;27.962;2022-07-12T01:10:18;1.25;;;0.90;;
7267;SDS011;3675;43.276;27.962;2022-07-12T01:12:43;0.75;;;0.60;;
7267;SDS011;3675;43.276;27.962;2022-07-12T01:15:09;0.77;;;0.77;;
7267;SDS011;3675;43.276;27.962;2022-07-12T01:17:34;0.65;;;0.65;;
7267;SDS011;3675;43.276;27.962;2022-07-12T01:20:00;0.90;;;0.90;;
7267;SDS011;3675;43.276;27.962;2022-07-12T01:22:26;0.60;;;0.60;;
7267;SDS011;3675;43.276;27.962;2022-07-12T01:24:53;0.70;;;0.70;;
7267;SDS011;3675;43.276;27.962;2022-07-12T01:27:18;1.65;;;0.60;;
7267;SDS011;3675;43.276;27.962;2022-07-12T01:29:43;0.60;;;0.60;;
7267;SDS011;3675;43.276;27.962;2022-07-12T01:32:09;0.60;;;0.60;;
7267;SDS011;3675;43.276;27.962;2022-07-12T01:37:18;0.80;;;0.80;;
7267;SDS011;3675;43.276;27.962;2022-07-12T01:39:44;1.20;;;1.10;;
7267;SDS011;3675;43.276;27.962;2022-07-12T01:42:09;0.70;;;0.70;;
7267;SDS011;3675;43.276;27.962;2022-07-12T01:44:35;0.65;;;0.65;;
7267;SDS011;3675;43.276;27.962;2022-07-12T01:47:01;0.82;;;0.82;;
7267;SDS011;3675;43.276;27.962;2022-07-12T01:49:26;1.20;;;0.63;;
7267;SDS011;3675;43.276;27.962;2022-07-12T01:51:54;0.75;;;0.75;;
7267;SDS011;3675;43.276;27.962;2022-07-12T01:54:19;0.68;;;0.68;;
7267;SDS011;3675;43.276;27.962;2022-07-12T01:56:44;0.82;;;0.60;;
7267;SDS011;3675;43.276;27.962;2022-07-12T01:59:10;0.70;;;0.70;;
7267;SDS011;3675;43.276;27.962;2022-07-12T02:01:35;0.90;;;0.90;;
7267;SDS011;3675;43.276;27.962;2022-07-12T02:04:02;1.92;;;1.30;;
7267;SDS011;3675;43.276;27.962;2022-07-12T02:06:28;0.75;;;0.73;;
7267;SDS011;3675;43.276;27.962;2022-07-12T02:08:54;0.60;;;0.60;;
7267;SDS011;3675;43.276;27.962;2022-07-12T02:11:19;0.50;;;0.50;;
7267;SDS011;3675;43.276;27.962;2022-07-12T02:13:45;0.82;;;0.82;;
7267;SDS011;3675;43.276;27.962;2022-07-12T02:16:10;0.60;;;0.60;;
7267;SDS011;3675;43.276;27.962;2022-07-12T02:18:35;0.93;;;0.73;;
7267;SDS011;3675;43.276;27.962;2022-07-12T02:21:01;0.75;;;0.68;;
7267;SDS011;3675;43.276;27.962;2022-07-12T02:23:27;0.75;;;0.75;;
7267;SDS011;3675;43.276;27.962;2022-07-12T02:25:52;0.70;;;0.70;;
7267;SDS011;3675;43.276;27.962;2022-07-12T02:28:17;0.98;;;0.98;;
7267;SDS011;3675;43.276;27.962;2022-07-12T02:30:42;0.45;;;0.45;;
7267;SDS011;3675;43.276;27.962;2022-07-12T02:33:08;0.68;;;0.68;;
7267;SDS011;3675;43.276;27.962;2022-07-12T02:35:33;1.67;;;0.70;;
7267;SDS011;3675;43.276;27.962;2022-07-12T02:37:58;1.80;;;0.73;;
7267;SDS011;3675;43.276;27.962;2022-07-12T02:40:24;0.77;;;0.77;;
7267;SDS011;3675;43.276;27.962;2022-07-12T02:43:07;0.52;;;0.52;;
7267;SDS011;3675;43.276;27.962;2022-07-12T02:45:33;0.90;;;0.80;;
7267;SDS011;3675;43.276;27.962;2022-07-12T02:47:58;0.47;;;0.47;;
7267;SDS011;3675;43.276;27.962;2022-07-12T02:50:24;0.80;;;0.80;;
7267;SDS011;3675;43.276;27.962;2022-07-12T02:52:49;0.80;;;0.80;;
7267;SDS011;3675;43.276;27.962;2022-07-12T02:55:14;0.63;;;0.63;;
7267;SDS011;3675;43.276;27.962;2022-07-12T02:57:40;1.20;;;0.88;;
7267;SDS011;3675;43.276;27.962;2022-07-12T03:00:06;0.93;;;0.90;;
7267;SDS011;3675;43.276;27.962;2022-07-12T03:02:32;0.75;;;0.75;;
7267;SDS011;3675;43.276;27.962;2022-07-12T03:04:57;0.70;;;0.70;;
7267;SDS011;3675;43.276;27.962;2022-07-12T03:07:22;0.73;;;0.70;;
7267;SDS011;3675;43.276;27.962;2022-07-12T03:09:48;0.80;;;0.80;;
7267;SDS011;3675;43.276;27.962;2022-07-12T03:12:13;1.00;;;0.90;;
7267;SDS011;3675;43.276;27.962;2022-07-12T03:14:38;1.77;;;0.98;;
7267;SDS011;3675;43.276;27.962;2022-07-12T03:17:04;3.60;;;0.90;;
7267;SDS011;3675;43.276;27.962;2022-07-12T03:19:29;0.73;;;0.73;;
7267;SDS011;3675;43.276;27.962;2022-07-12T03:21:54;0.88;;;0.77;;
7267;SDS011;3675;43.276;27.962;2022-07-12T03:24:20;0.80;;;0.80;;
7267;SDS011;3675;43.276;27.962;2022-07-12T03:26:45;0.80;;;0.80;;
7267;SDS011;3675;43.276;27.962;2022-07-12T03:29:10;0.60;;;0.60;;
7267;SDS011;3675;43.276;27.962;2022-07-12T03:31:36;0.55;;;0.55;;
7267;SDS011;3675;43.276;27.962;2022-07-12T03:34:01;0.70;;;0.70;;
7267;SDS011;3675;43.276;27.962;2022-07-12T03:36:27;1.33;;;0.73;;
7267;SDS011;3675;43.276;27.962;2022-07-12T03:38:52;0.70;;;0.70;;
7267;SDS011;3675;43.276;27.962;2022-07-12T03:41:18;1.10;;;0.73;;
7267;SDS011;3675;43.276;27.962;2022-07-12T03:43:43;2.15;;;1.10;;
7267;SDS011;3675;43.276;27.962;2022-07-12T03:46:08;1.00;;;1.00;;
7267;SDS011;3675;43.276;27.962;2022-07-12T03:48:34;0.80;;;0.80;;
7267;SDS011;3675;43.276;27.962;2022-07-12T03:50:59;0.70;;;0.70;;
7267;SDS011;3675;43.276;27.962;2022-07-12T03:53:24;0.80;;;0.80;;
7267;SDS011;3675;43.276;27.962;2022-07-12T03:55:50;0.47;;;0.47;;
7267;SDS011;3675;43.276;27.962;2022-07-12T03:58:15;0.60;;;0.60;;
7267;SDS011;3675;43.276;27.962;2022-07-12T04:00:40;0.88;;;0.88;;
7267;SDS011;3675;43.276;27.962;2022-07-12T04:03:08;0.80;;;0.80;;
7267;SDS011;3675;43.276;27.962;2022-07-12T04:05:33;0.70;;;0.70;;
7267;SDS011;3675;43.276;27.962;2022-07-12T04:07:58;1.02;;;0.93;;
7267;SDS011;3675;43.276;27.962;2022-07-12T04:10:26;0.90;;;0.90;;
7267;SDS011;3675;43.276;27.962;2022-07-12T04:12:51;0.77;;;0.77;;
7267;SDS011;3675;43.276;27.962;2022-07-12T04:15:16;2.50;;;0.88;;
7267;SDS011;3675;43.276;27.962;2022-07-12T04:17:42;0.90;;;0.90;;
7267;SDS011;3675;43.276;27.962;2022-07-12T04:20:07;1.75;;;0.70;;
7267;SDS011;3675;43.276;27.962;2022-07-12T04:22:33;0.60;;;0.60;;
7267;SDS011;3675;43.276;27.962;2022-07-12T04:24:58;0.82;;;0.82;;
7267;SDS011;3675;43.276;27.962;2022-07-12T04:27:24;1.30;;;1.00;;
7267;SDS011;3675;43.276;27.962;2022-07-12T04:29:51;2.15;;;1.10;;
7267;SDS011;3675;43.276;27.962;2022-07-12T04:32:16;1.10;;;1.05;;
7267;SDS011;3675;43.276;27.962;2022-07-12T04:34:42;0.88;;;0.88;;
7267;SDS011;3675;43.276;27.962;2022-07-12T04:37:07;0.70;;;0.70;;
7267;SDS011;3675;43.276;27.962;2022-07-12T04:39:32;0.85;;;0.65;;
7267;SDS011;3675;43.276;27.962;2022-07-12T04:41:58;0.90;;;0.90;;
7267;SDS011;3675;43.276;27.962;2022-07-12T04:44:23;0.77;;;0.77;;
7267;SDS011;3675;43.276;27.962;2022-07-12T04:46:48;0.77;;;0.77;;
7267;SDS011;3675;43.276;27.962;2022-07-12T04:49:14;0.75;;;0.75;;
7267;SDS011;3675;43.276;27.962;2022-07-12T04:51:39;1.30;;;0.52;;
7267;SDS011;3675;43.276;27.962;2022-07-12T04:54:05;1.08;;;1.08;;
7267;SDS011;3675;43.276;27.962;2022-07-12T04:56:30;0.82;;;0.82;;
7267;SDS011;3675;43.276;27.962;2022-07-12T04:58:55;0.77;;;0.77;;
7267;SDS011;3675;43.276;27.962;2022-07-12T05:01:21;0.85;;;0.85;;
7267;SDS011;3675;43.276;27.962;2022-07-12T05:03:46;0.65;;;0.55;;
7267;SDS011;3675;43.276;27.962;2022-07-12T05:06:12;0.63;;;0.63;;
7267;SDS011;3675;43.276;27.962;2022-07-12T05:08:37;0.82;;;0.70;;
7267;SDS011;3675;43.276;27.962;2022-07-12T05:11:03;0.77;;;0.77;;
7267;SDS011;3675;43.276;27.962;2022-07-12T05:13:29;0.90;;;0.90;;
7267;SDS011;3675;43.276;27.962;2022-07-12T05:15:54;0.88;;;0.88;;
7267;SDS011;3675;43.276;27.962;2022-07-12T05:18:19;0.65;;;0.65;;
7267;SDS011;3675;43.276;27.962;2022-07-12T05:20:45;1.30;;;0.68;;
7267;SDS011;3675;43.276;27.962;2022-07-12T05:23:10;0.82;;;0.82;;
7267;SDS011;3675;43.276;27.962;2022-07-12T05:25:35;0.50;;;0.50;;
7267;SDS011;3675;43.276;27.962;2022-07-12T05:28:01;0.50;;;0.50;;
7267;SDS011;3675;43.276;27.962;2022-07-12T05:30:27;0.55;;;0.55;;
7267;SDS011;3675;43.276;27.962;2022-07-12T05:32:52;0.50;;;0.50;;
7267;SDS011;3675;43.276;27.962;2022-07-12T05:35:18;0.60;;;0.60;;
7267;SDS011;3675;43.276;27.962;2022-07-12T05:37:43;0.50;;;0.50;;
7267;SDS011;3675;43.276;27.962;2022-07-12T05:40:08;0.98;;;0.70;;
7267;SDS011;3675;43.276;27.962;2022-07-12T05:42:34;0.75;;;0.75;;
7267;SDS011;3675;43.276;27.962;2022-07-12T05:44:59;0.80;;;0.80;;
7267;SDS011;3675;43.276;27.962;2022-07-12T05:47:25;0.80;;;0.80;;
7267;SDS011;3675;43.276;27.962;2022-07-12T05:49:50;3.10;;;0.60;;
7267;SDS011;3675;43.276;27.962;2022-07-12T05:52:16;0.80;;;0.80;;
7267;SDS011;3675;43.276;27.962;2022-07-12T05:55:00;0.50;;;0.50;;
7267;SDS011;3675;43.276;27.962;2022-07-12T05:57:25;0.50;;;0.47;;
7267;SDS011;3675;43.276;27.962;2022-07-12T05:59:50;2.00;;;0.60;;
7267;SDS011;3675;43.276;27.962;2022-07-12T06:02:15;1.38;;;0.60;;
7267;SDS011;3675;43.276;27.962;2022-07-12T06:04:41;0.60;;;0.60;;
7267;SDS011;3675;43.276;27.962;2022-07-12T06:07:06;0.40;;;0.40;;
7267;SDS011;3675;43.276;27.962;2022-07-12T06:09:32;0.45;;;0.45;;
7267;SDS011;3675;43.276;27.962;2022-07-12T06:11:57;0.60;;;0.60;;
7267;SDS011;3675;43.276;27.962;2022-07-12T06:14:22;0.60;;;0.60;;
7267;SDS011;3675;43.276;27.962;2022-07-12T06:16:48;0.52;;;0.52;;
7267;SDS011;3675;43.276;27.962;2022-07-12T06:19:13;0.40;;;0.40;;
7267;SDS011;3675;43.276;27.962;2022-07-12T06:21:39;0.70;;;0.70;;
7267;SDS011;3675;43.276;27.962;2022-07-12T06:24:04;2.28;;;0.70;;
7267;SDS011;3675;43.276;27.962;2022-07-12T06:26:30;0.60;;;0.60;;
7267;SDS011;3675;43.276;27.962;2022-07-12T06:28:55;0.57;;;0.57;;
7267;SDS011;3675;43.276;27.962;2022-07-12T06:31:20;0.60;;;0.60;;
7267;SDS011;3675;43.276;27.962;2022-07-12T06:33:48;6.07;;;0.90;;
7267;SDS011;3675;43.276;27.962;2022-07-12T06:36:14;0.50;;;0.50;;
7267;SDS011;3675;43.276;27.962;2022-07-12T06:38:39;0.60;;;0.50;;
7267;SDS011;3675;43.276;27.962;2022-07-12T06:41:04;0.70;;;0.55;;
7267;SDS011;3675;43.276;27.962;2022-07-12T06:43:30;1.88;;;0.60;;
7267;SDS011;3675;43.276;27.962;2022-07-12T06:45:55;0.65;;;0.65;;
7267;SDS011;3675;43.276;27.962;2022-07-12T06:48:20;0.60;;;0.60;;
7267;SDS011;3675;43.276;27.962;2022-07-12T06:50:46;0.57;;;0.57;;
7267;SDS011;3675;43.276;27.962;2022-07-12T06:53:11;0.80;;;0.80;;
7267;SDS011;3675;43.276;27.962;2022-07-12T06:55:37;0.68;;;0.45;;
7267;SDS011;3675;43.276;27.962;2022-07-12T06:58:02;0.60;;;0.60;;
7267;SDS011;3675;43.276;27.962;2022-07-12T07:00:28;0.50;;;0.50;;
7267;SDS011;3675;43.276;27.962;2022-07-12T07:02:53;0.73;;;0.73;;
7267;SDS011;3675;43.276;27.962;2022-07-12T07:05:18;0.65;;;0.65;;
7267;SDS011;3675;43.276;27.962;2022-07-12T07:07:44;0.77;;;0.77;;
7267;SDS011;3675;43.276;27.962;2022-07-12T07:10:10;0.50;;;0.50;;
7267;SDS011;3675;43.276;27.962;2022-07-12T07:12:35;0.52;;;0.52;;
7267;SDS011;3675;43.276;27.962;2022-07-12T07:15:00;0.50;;;0.50;;
7267;SDS011;3675;43.276;27.962;2022-07-12T07:17:26;0.47;;;0.47;;
7267;SDS011;3675;43.276;27.962;2022-07-12T07:19:51;1.95;;;0.50;;
7267;SDS011;3675;43.276;27.962;2022-07-12T07:22:17;0.60;;;0.60;;
7267;SDS011;3675;43.276;27.962;2022-07-12T07:24:43;2.28;;;0.47;;
7267;SDS011;3675;43.276;27.962;2022-07-12T07:27:09;0.50;;;0.50;;
7267;SDS011;3675;43.276;27.962;2022-07-12T07:29:34;0.70;;;0.70;;
7267;SDS011;3675;43.276;27.962;2022-07-12T07:32:18;0.60;;;0.60;;
7267;SDS011;3675;43.276;27.962;2022-07-12T07:34:44;0.40;;;0.40;;
7267;SDS011;3675;43.276;27.962;2022-07-12T07:37:10;0.50;;;0.50;;
7267;SDS011;3675;43.276;27.962;2022-07-12T07:39:35;0.50;;;0.50;;
7267;SDS011;3675;43.276;27.962;2022-07-12T07:42:01;0.60;;;0.60;;
7267;SDS011;3675;43.276;27.962;2022-07-12T07:44:26;0.50;;;0.50;;
7267;SDS011;3675;43.276;27.962;2022-07-12T07:46:52;0.40;;;0.40;;
7267;SDS011;3675;43.276;27.962;2022-07-12T07:49:17;0.70;;;0.50;;
7267;SDS011;3675;43.276;27.962;2022-07-12T07:51:42;1.40;;;0.77;;
7267;SDS011;3675;43.276;27.962;2022-07-12T07:54:08;4.18;;;0.50;;
7267;SDS011;3675;43.276;27.962;2022-07-12T07:56:33;0.82;;;0.55;;
7267;SDS011;3675;43.276;27.962;2022-07-12T07:58:58;0.60;;;0.60;;
7267;SDS011;3675;43.276;27.962;2022-07-12T08:01:24;0.50;;;0.50;;
7267;SDS011;3675;43.276;27.962;2022-07-12T08:04:10;0.80;;;0.80;;
7267;SDS011;3675;43.276;27.962;2022-07-12T08:06:35;0.73;;;0.73;;
7267;SDS011;3675;43.276;27.962;2022-07-12T08:09:01;0.98;;;0.47;;
7267;SDS011;3675;43.276;27.962;2022-07-12T08:11:27;3.70;;;0.63;;
7267;SDS011;3675;43.276;27.962;2022-07-12T08:13:52;0.75;;;0.75;;
7267;SDS011;3675;43.276;27.962;2022-07-12T08:16:17;0.52;;;0.52;;
7267;SDS011;3675;43.276;27.962;2022-07-12T08:18:43;0.70;;;0.70;;
7267;SDS011;3675;43.276;27.962;2022-07-12T08:21:08;0.60;;;0.60;;
7267;SDS011;3675;43.276;27.962;2022-07-12T08:23:34;0.70;;;0.70;;
7267;SDS011;3675;43.276;27.962;2022-07-12T08:25:59;0.38;;;0.38;;
7267;SDS011;3675;43.276;27.962;2022-07-12T08:28:25;0.65;;;0.65;;
7267;SDS011;3675;43.276;27.962;2022-07-12T08:30:50;0.45;;;0.45;;
7267;SDS011;3675;43.276;27.962;2022-07-12T08:33:15;1.45;;;1.02;;
7267;SDS011;3675;43.276;27.962;2022-07-12T08:35:41;1.27;;;0.75;;
7267;SDS011;3675;43.276;27.962;2022-07-12T08:38:06;0.60;;;0.60;;
7267;SDS011;3675;43.276;27.962;2022-07-12T08:40:32;2.38;;;0.70;;
7267;SDS011;3675;43.276;27.962;2022-07-12T08:42:57;0.70;;;0.70;;
7267;SDS011;3675;43.276;27.962;2022-07-12T08:45:23;1.05;;;0.60;;
7267;SDS011;3675;43.276;27.962;2022-07-12T08:47:49;1.48;;;0.80;;
7267;SDS011;3675;43.276;27.962;2022-07-12T08:50:16;0.65;;;0.65;;
7267;SDS011;3675;43.276;27.962;2022-07-12T08:52:45;0.50;;;0.50;;
7267;SDS011;3675;43.276;27.962;2022-07-12T08:57:45;0.75;;;0.55;;
7267;SDS011;3675;43.276;27.962;2022-07-12T09:00:11;1.75;;;0.90;;
7267;SDS011;3675;43.276;27.962;2022-07-12T09:02:43;0.75;;;0.75;;
7267;SDS011;3675;43.276;27.962;2022-07-12T09:05:10;0.55;;;0.55;;
7267;SDS011;3675;43.276;27.962;2022-07-12T09:07:36;0.60;;;0.60;;
7267;SDS011;3675;43.276;27.962;2022-07-12T09:10:03;0.60;;;0.60;;
7267;SDS011;3675;43.276;27.962;2022-07-12T09:12:28;0.68;;;0.68;;
7267;SDS011;3675;43.276;27.962;2022-07-12T09:14:53;2.05;;;0.90;;
7267;SDS011;3675;43.276;27.962;2022-07-12T09:17:21;0.57;;;0.57;;
7267;SDS011;3675;43.276;27.962;2022-07-12T09:19:56;0.77;;;0.75;;
7267;SDS011;3675;43.276;27.962;2022-07-12T09:22:22;0.95;;;0.60;;
7267;SDS011;3675;43.276;27.962;2022-07-12T09:24:47;0.47;;;0.47;;
7267;SDS011;3675;43.276;27.962;2022-07-12T09:27:13;0.60;;;0.60;;
7267;SDS011;3675;43.276;27.962;2022-07-12T09:29:51;0.68;;;0.68;;
7267;SDS011;3675;43.276;27.962;2022-07-12T09:32:17;0.77;;;0.45;;
7267;SDS011;3675;43.276;27.962;2022-07-12T09:35:01;0.57;;;0.57;;
7267;SDS011;3675;43.276;27.962;2022-07-12T09:37:45;0.85;;;0.52;;
7267;SDS011;3675;43.276;27.962;2022-07-12T09:40:11;0.52;;;0.52;;
7267;SDS011;3675;43.276;27.962;2022-07-12T09:42:37;0.50;;;0.50;;
7267;SDS011;3675;43.276;27.962;2022-07-12T09:45:04;0.80;;;0.80;;
7267;SDS011;3675;43.276;27.962;2022-07-12T09:47:30;0.65;;;0.65;;
7267;SDS011;3675;43.276;27.962;2022-07-12T09:49:56;0.60;;;0.52;;
7267;SDS011;3675;43.276;27.962;2022-07-12T09:52:22;1.35;;;0.90;;
7267;SDS011;3675;43.276;27.962;2022-07-12T09:54:51;0.88;;;0.88;;
7267;SDS011;3675;43.276;27.962;2022-07-12T09:57:21;0.80;;;0.80;;
7267;SDS011;3675;43.276;27.962;2022-07-12T09:59:49;0.98;;;0.98;;
7267;SDS011;3675;43.276;27.962;2022-07-12T10:02:15;0.90;;;0.90;;
7267;SDS011;3675;43.276;27.962;2022-07-12T10:04:41;3.10;;;1.33;;
7267;SDS011;3675;43.276;27.962;2022-07-12T10:07:10;1.77;;;0.70;;
7267;SDS011;3675;43.276;27.962;2022-07-12T10:09:38;0.88;;;0.88;;
7267;SDS011;3675;43.276;27.962;2022-07-12T10:12:04;0.40;;;0.40;;
7267;SDS011;3675;43.276;27.962;2022-07-12T10:14:30;0.95;;;0.90;;
7267;SDS011;3675;43.276;27.962;2022-07-12T10:16:56;2.65;;;0.70;;
7267;SDS011;3675;43.276;27.962;2022-07-12T10:21:48;0.90;;;0.90;;
7267;SDS011;3675;43.276;27.962;2022-07-12T10:29:23;1.15;;;1.08;;
7267;SDS011;3675;43.276;27.962;2022-07-12T10:31:49;0.80;;;0.80;;
7267;SDS011;3675;43.276;27.962;2022-07-12T10:34:22;0.95;;;0.90;;
7267;SDS011;3675;43.276;27.962;2022-07-12T10:39:19;1.40;;;1.08;;
7267;SDS011;3675;43.276;27.962;2022-07-12T10:41:56;0.82;;;0.82;;
7267;SDS011;3675;43.276;27.962;2022-07-12T10:44:34;0.80;;;0.80;;
7267;SDS011;3675;43.276;27.962;2022-07-12T10:47:00;0.60;;;0.60;;
7267;SDS011;3675;43.276;27.962;2022-07-12T10:49:29;0.80;;;0.80;;
7267;SDS011;3675;43.276;27.962;2022-07-12T10:54:39;0.80;;;0.80;;
7267;SDS011;3675;43.276;27.962;2022-07-12T10:57:05;1.25;;;1.05;;
7267;SDS011;3675;43.276;27.962;2022-07-12T10:59:33;0.82;;;0.82;;
7267;SDS011;3675;43.276;27.962;2022-07-12T11:01:59;0.70;;;0.70;;
7267;SDS011;3675;43.276;27.962;2022-07-12T11:04:25;0.93;;;0.93;;
7267;SDS011;3675;43.276;27.962;2022-07-12T11:06:51;0.90;;;0.90;;
7267;SDS011;3675;43.276;27.962;2022-07-12T11:09:20;0.80;;;0.80;;
7267;SDS011;3675;43.276;27.962;2022-07-12T11:11:46;1.10;;;0.95;;
7267;SDS011;3675;43.276;27.962;2022-07-12T11:16:46;0.80;;;0.80;;
7267;SDS011;3675;43.276;27.962;2022-07-12T11:19:12;3.65;;;0.95;;
7267;SDS011;3675;43.276;27.962;2022-07-12T11:21:38;1.35;;;0.90;;
7267;SDS011;3675;43.276;27.962;2022-07-12T11:24:14;0.95;;;0.90;;
7267;SDS011;3675;43.276;27.962;2022-07-12T11:26:40;1.00;;;1.00;;
7267;SDS011;3675;43.276;27.962;2022-07-12T11:29:05;1.10;;;1.10;;
7267;SDS011;3675;43.276;27.962;2022-07-12T11:31:31;0.95;;;0.95;;
7267;SDS011;3675;43.276;27.962;2022-07-12T11:33:56;1.20;;;1.20;;
7267;SDS011;3675;43.276;27.962;2022-07-12T11:36:24;1.05;;;1.05;;
7267;SDS011;3675;43.276;27.962;2022-07-12T11:38:50;0.98;;;0.98;;
7267;SDS011;3675;43.276;27.962;2022-07-12T11:41:16;1.25;;;1.23;;
7267;SDS011;3675;43.276;27.962;2022-07-12T11:43:41;1.20;;;1.20;;
7267;SDS011;3675;43.276;27.962;2022-07-12T11:46:07;1.23;;;1.13;;
7267;SDS011;3675;43.276;27.962;2022-07-12T11:48:32;1.00;;;1.00;;
7267;SDS011;3675;43.276;27.962;2022-07-12T11:51:02;1.13;;;1.13;;
7267;SDS011;3675;43.276;27.962;2022-07-12T11:53:29;1.38;;;1.08;;
7267;SDS011;3675;43.276;27.962;2022-07-12T11:55:55;1.52;;;1.42;;
7267;SDS011;3675;43.276;27.962;2022-07-12T11:58:21;1.20;;;1.20;;
7267;SDS011;3675;43.276;27.962;2022-07-12T12:00:47;1.38;;;1.27;;
7267;SDS011;3675;43.276;27.962;2022-07-12T12:03:13;1.13;;;1.05;;
7267;SDS011;3675;43.276;27.962;2022-07-12T12:05:38;1.55;;;1.45;;
7267;SDS011;3675;43.276;27.962;2022-07-12T12:08:04;1.67;;;1.58;;
7267;SDS011;3675;43.276;27.962;2022-07-12T12:10:30;1.42;;;1.35;;
7267;SDS011;3675;43.276;27.962;2022-07-12T12:12:56;1.38;;;1.38;;
7267;SDS011;3675;43.276;27.962;2022-07-12T12:15:22;1.27;;;1.27;;
7267;SDS011;3675;43.276;27.962;2022-07-12T12:17:52;1.10;;;1.10;;
7267;SDS011;3675;43.276;27.962;2022-07-12T12:20:22;1.30;;;1.25;;
7267;SDS011;3675;43.276;27.962;2022-07-12T12:22:48;1.40;;;1.30;;
7267;SDS011;3675;43.276;27.962;2022-07-12T12:25:14;1.45;;;1.35;;
7267;SDS011;3675;43.276;27.962;2022-07-12T12:27:41;1.00;;;0.90;;
7267;SDS011;3675;43.276;27.962;2022-07-12T12:30:09;1.27;;;1.27;;
7267;SDS011;3675;43.276;27.962;2022-07-12T12:32:44;1.10;;;1.10;;
7267;SDS011;3675;43.276;27.962;2022-07-12T12:35:10;1.48;;;1.48;;
7267;SDS011;3675;43.276;27.962;2022-07-12T12:37:36;5.13;;;1.40;;
7267;SDS011;3675;43.276;27.962;2022-07-12T12:40:02;1.27;;;1.17;;
7267;SDS011;3675;43.276;27.962;2022-07-12T12:42:27;1.48;;;1.48;;
7267;SDS011;3675;43.276;27.962;2022-07-12T12:44:53;1.63;;;1.52;;
7267;SDS011;3675;43.276;27.962;2022-07-12T12:47:18;1.13;;;1.13;;
7267;SDS011;3675;43.276;27.962;2022-07-12T12:49:56;1.45;;;1.45;;
7267;SDS011;3675;43.276;27.962;2022-07-12T12:52:22;1.20;;;1.20;;
7267;SDS011;3675;43.276;27.962;2022-07-12T12:54:48;1.17;;;1.17;;
7267;SDS011;3675;43.276;27.962;2022-07-12T12:57:13;1.25;;;1.25;;
7267;SDS011;3675;43.276;27.962;2022-07-12T12:59:39;1.65;;;1.40;;
7267;SDS011;3675;43.276;27.962;2022-07-12T13:02:05;1.50;;;1.40;;
7267;SDS011;3675;43.276;27.962;2022-07-12T13:04:31;1.50;;;1.50;;
7267;SDS011;3675;43.276;27.962;2022-07-12T13:06:57;0.98;;;0.95;;
7267;SDS011;3675;43.276;27.962;2022-07-12T13:09:22;1.20;;;1.20;;
7267;SDS011;3675;43.276;27.962;2022-07-12T13:11:48;1.05;;;1.05;;
7267;SDS011;3675;43.276;27.962;2022-07-12T13:14:14;1.55;;;1.45;;
7267;SDS011;3675;43.276;27.962;2022-07-12T13:16:39;1.05;;;1.05;;
7267;SDS011;3675;43.276;27.962;2022-07-12T13:19:05;1.50;;;1.38;;
7267;SDS011;3675;43.276;27.962;2022-07-12T13:21:30;1.00;;;1.00;;
7267;SDS011;3675;43.276;27.962;2022-07-12T13:23:55;2.10;;;1.13;;
7267;SDS011;3675;43.276;27.962;2022-07-12T13:26:21;1.63;;;1.40;;
7267;SDS011;3675;43.276;27.962;2022-07-12T13:28:46;0.90;;;0.90;;
7267;SDS011;3675;43.276;27.962;2022-07-12T13:31:11;1.45;;;1.35;;
7267;SDS011;3675;43.276;27.962;2022-07-12T13:33:37;2.90;;;1.17;;
7267;SDS011;3675;43.276;27.962;2022-07-12T13:36:03;1.88;;;1.75;;
7267;SDS011;3675;43.276;27.962;2022-07-12T13:38:29;1.70;;;1.60;;
7267;SDS011;3675;43.276;27.962;2022-07-12T13:40:54;1.10;;;1.10;;
7267;SDS011;3675;43.276;27.962;2022-07-12T13:43:19;1.17;;;1.17;;
7267;SDS011;3675;43.276;27.962;2022-07-12T13:45:45;1.67;;;1.10;;
7267;SDS011;3675;43.276;27.962;2022-07-12T13:48:10;3.90;;;1.98;;
7267;SDS011;3675;43.276;27.962;2022-07-12T13:50:37;1.25;;;1.25;;
7267;SDS011;3675;43.276;27.962;2022-07-12T13:53:03;1.13;;;1.13;;
7267;SDS011;3675;43.276;27.962;2022-07-12T13:55:28;1.17;;;1.17;;
7267;SDS011;3675;43.276;27.962;2022-07-12T13:57:56;1.40;;;1.40;;
7267;SDS011;3675;43.276;27.962;2022-07-12T14:00:21;1.30;;;1.30;;
7267;SDS011;3675;43.276;27.962;2022-07-12T14:02:48;1.42;;;1.42;;
7267;SDS011;3675;43.276;27.962;2022-07-12T14:05:14;3.22;;;1.00;;
7267;SDS011;3675;43.276;27.962;2022-07-12T14:07:40;1.55;;;1.45;;
7267;SDS011;3675;43.276;27.962;2022-07-12T14:10:06;1.23;;;1.23;;
7267;SDS011;3675;43.276;27.962;2022-07-12T14:12:31;1.42;;;1.42;;
7267;SDS011;3675;43.276;27.962;2022-07-12T14:14:57;1.30;;;1.30;;
7267;SDS011;3675;43.276;27.962;2022-07-12T14:17:54;1.23;;;1.23;;
7267;SDS011;3675;43.276;27.962;2022-07-12T14:20:20;1.58;;;1.48;;
7267;SDS011;3675;43.276;27.962;2022-07-12T14:22:46;1.20;;;1.20;;
7267;SDS011;3675;43.276;27.962;2022-07-12T14:25:12;1.02;;;1.02;;
7267;SDS011;3675;43.276;27.962;2022-07-12T14:27:37;1.73;;;1.63;;
7267;SDS011;3675;43.276;27.962;2022-07-12T14:30:03;1.10;;;1.10;;
7267;SDS011;3675;43.276;27.962;2022-07-12T14:32:28;1.33;;;1.33;;
7267;SDS011;3675;43.276;27.962;2022-07-12T14:34:54;3.70;;;1.30;;
7267;SDS011;3675;43.276;27.962;2022-07-12T14:37:19;0.95;;;0.95;;
7267;SDS011;3675;43.276;27.962;2022-07-12T14:39:45;2.33;;;1.38;;
7267;SDS011;3675;43.276;27.962;2022-07-12T14:42:10;1.33;;;1.33;;
7267;SDS011;3675;43.276;27.962;2022-07-12T14:44:35;1.00;;;1.00;;
7267;SDS011;3675;43.276;27.962;2022-07-12T14:47:01;2.35;;;1.40;;
7267;SDS011;3675;43.276;27.962;2022-07-12T14:49:26;1.02;;;1.00;;
7267;SDS011;3675;43.276;27.962;2022-07-12T14:51:53;0.82;;;0.82;;
7267;SDS011;3675;43.276;27.962;2022-07-12T14:54:18;1.23;;;1.23;;
7267;SDS011;3675;43.276;27.962;2022-07-12T14:56:44;1.70;;;1.38;;
7267;SDS011;3675;43.276;27.962;2022-07-12T14:59:09;1.35;;;1.35;;
7267;SDS011;3675;43.276;27.962;2022-07-12T15:01:34;1.05;;;1.05;;
7267;SDS011;3675;43.276;27.962;2022-07-12T15:04:00;0.98;;;0.98;;
7267;SDS011;3675;43.276;27.962;2022-07-12T15:06:25;0.95;;;0.95;;
7267;SDS011;3675;43.276;27.962;2022-07-12T15:08:52;1.60;;;1.50;;
7267;SDS011;3675;43.276;27.962;2022-07-12T15:11:17;1.05;;;1.05;;
7267;SDS011;3675;43.276;27.962;2022-07-12T15:13:43;0.98;;;0.98;;
7267;SDS011;3675;43.276;27.962;2022-07-12T15:16:08;1.13;;;1.13;;